sensor_id;sensor_type;location;lat;lon;timestamp;P1;durP1;ratioP1;P2;durP2;ratioP2
17193;SDS011;8713;48.388;10.928;2023-02-28T01:49:15;3.25;;;1.67;;
17193;SDS011;8713;48.388;10.928;2023-02-28T01:50:46;4.18;;;1.73;;
17193;SDS011;8713;48.388;10.928;2023-02-28T01:52:16;2.50;;;1.67;;
17193;SDS011;8713;48.388;10.928;2023-02-28T01:53:48;2.58;;;1.63;;
17193;SDS011;8713;48.388;10.928;2023-02-28T01:55:22;3.30;;;1.95;;
17193;SDS011;8713;48.388;10.928;2023-02-28T01:56:57;3.70;;;2.03;;
17193;SDS011;8713;48.388;10.928;2023-02-28T01:58:35;2.63;;;1.60;;
17193;SDS011;8713;48.388;10.928;2023-02-28T02:00:09;2.30;;;1.52;;
17193;SDS011;8713;48.388;10.928;2023-02-28T02:01:43;4.18;;;1.90;;
17193;SDS011;8713;48.388;10.928;2023-02-28T02:03:13;4.55;;;1.90;;
17193;SDS011;8713;48.388;10.928;2023-02-28T02:04:46;3.45;;;1.77;;
17193;SDS011;8713;48.388;10.928;2023-02-28T02:06:49;3.53;;;1.50;;
17193;SDS011;8713;48.388;10.928;2023-02-28T02:08:21;4.43;;;1.92;;
17193;SDS011;8713;48.388;10.928;2023-02-28T02:11:43;3.05;;;1.80;;
17193;SDS011;8713;48.388;10.928;2023-02-28T02:13:19;3.05;;;1.92;;
17193;SDS011;8713;48.388;10.928;2023-02-28T02:15:12;4.65;;;1.92;;
17193;SDS011;8713;48.388;10.928;2023-02-28T07:16:05;5.65;;;3.17;;
17193;SDS011;8713;48.388;10.928;2023-02-28T07:17:37;6.40;;;3.63;;
17193;SDS011;8713;48.388;10.928;2023-02-28T07:19:07;5.00;;;3.55;;
17193;SDS011;8713;48.388;10.928;2023-02-28T07:20:36;8.73;;;3.72;;
17193;SDS011;8713;48.388;10.928;2023-02-28T07:22:06;5.18;;;3.40;;
17193;SDS011;8713;48.388;10.928;2023-02-28T07:23:36;5.45;;;3.35;;
17193;SDS011;8713;48.388;10.928;2023-02-28T07:25:10;5.72;;;3.25;;
17193;SDS011;8713;48.388;10.928;2023-02-28T07:26:40;6.65;;;3.72;;
17193;SDS011;8713;48.388;10.928;2023-02-28T07:28:10;5.10;;;3.53;;
17193;SDS011;8713;48.388;10.928;2023-02-28T07:29:40;6.35;;;4.10;;
17193;SDS011;8713;48.388;10.928;2023-02-28T07:31:10;6.00;;;3.75;;
17193;SDS011;8713;48.388;10.928;2023-02-28T07:32:40;6.90;;;3.80;;
17193;SDS011;8713;48.388;10.928;2023-02-28T07:34:09;7.07;;;3.72;;
17193;SDS011;8713;48.388;10.928;2023-02-28T07:35:39;6.40;;;3.78;;
17193;SDS011;8713;48.388;10.928;2023-02-28T07:37:09;4.13;;;3.22;;
17193;SDS011;8713;48.388;10.928;2023-02-28T07:38:38;5.90;;;3.55;;
17193;SDS011;8713;48.388;10.928;2023-02-28T07:40:09;6.40;;;3.90;;
17193;SDS011;8713;48.388;10.928;2023-02-28T07:41:21;6.55;;;3.60;;
17193;SDS011;8713;48.388;10.928;2023-02-28T07:42:31;6.25;;;3.72;;
17193;SDS011;8713;48.388;10.928;2023-02-28T07:43:41;6.68;;;3.63;;
17193;SDS011;8713;48.388;10.928;2023-02-28T07:44:50;5.43;;;3.55;;
17193;SDS011;8713;48.388;10.928;2023-02-28T07:46:02;4.75;;;3.47;;
17193;SDS011;8713;48.388;10.928;2023-02-28T07:47:38;5.65;;;3.92;;
17193;SDS011;8713;48.388;10.928;2023-02-28T07:49:07;7.65;;;3.42;;
17193;SDS011;8713;48.388;10.928;2023-02-28T07:50:35;5.82;;;3.63;;
17193;SDS011;8713;48.388;10.928;2023-02-28T07:52:04;4.55;;;3.15;;
17193;SDS011;8713;48.388;10.928;2023-02-28T07:53:33;5.65;;;3.70;;
17193;SDS011;8713;48.388;10.928;2023-02-28T07:54:45;6.63;;;3.60;;
17193;SDS011;8713;48.388;10.928;2023-02-28T07:55:58;7.35;;;4.25;;
17193;SDS011;8713;48.388;10.928;2023-02-28T07:57:28;6.85;;;3.70;;
17193;SDS011;8713;48.388;10.928;2023-02-28T07:58:57;5.70;;;3.63;;
17193;SDS011;8713;48.388;10.928;2023-02-28T08:00:26;7.20;;;4.07;;
17193;SDS011;8713;48.388;10.928;2023-02-28T08:01:54;6.15;;;3.63;;
17193;SDS011;8713;48.388;10.928;2023-02-28T08:03:25;5.25;;;3.28;;
17193;SDS011;8713;48.388;10.928;2023-02-28T08:04:53;5.53;;;4.10;;
17193;SDS011;8713;48.388;10.928;2023-02-28T08:06:24;7.07;;;3.80;;
17193;SDS011;8713;48.388;10.928;2023-02-28T08:07:53;6.68;;;4.30;;
17193;SDS011;8713;48.388;10.928;2023-02-28T08:09:22;7.40;;;4.10;;
17193;SDS011;8713;48.388;10.928;2023-02-28T08:10:50;7.18;;;4.78;;
17193;SDS011;8713;48.388;10.928;2023-02-28T08:12:18;7.22;;;4.40;;
17193;SDS011;8713;48.388;10.928;2023-02-28T08:13:28;6.82;;;4.45;;
17193;SDS011;8713;48.388;10.928;2023-02-28T08:14:38;6.05;;;4.18;;
17193;SDS011;8713;48.388;10.928;2023-02-28T08:15:48;6.88;;;4.47;;
17193;SDS011;8713;48.388;10.928;2023-02-28T08:16:57;6.18;;;4.25;;
17193;SDS011;8713;48.388;10.928;2023-02-28T08:18:06;5.88;;;4.03;;
17193;SDS011;8713;48.388;10.928;2023-02-28T08:19:16;4.72;;;3.50;;
17193;SDS011;8713;48.388;10.928;2023-02-28T08:20:44;5.53;;;3.55;;
17193;SDS011;8713;48.388;10.928;2023-02-28T08:22:12;5.40;;;4.13;;
17193;SDS011;8713;48.388;10.928;2023-02-28T08:23:28;6.40;;;4.47;;
17193;SDS011;8713;48.388;10.928;2023-02-28T08:24:43;6.25;;;3.97;;
17193;SDS011;8713;48.388;10.928;2023-02-28T08:25:53;6.65;;;4.13;;
17193;SDS011;8713;48.388;10.928;2023-02-28T08:27:04;6.88;;;4.65;;
17193;SDS011;8713;48.388;10.928;2023-02-28T08:28:32;7.82;;;4.15;;
17193;SDS011;8713;48.388;10.928;2023-02-28T08:30:00;8.15;;;4.68;;
17193;SDS011;8713;48.388;10.928;2023-02-28T08:31:10;6.13;;;4.20;;
17193;SDS011;8713;48.388;10.928;2023-02-28T08:32:41;6.80;;;4.10;;
17193;SDS011;8713;48.388;10.928;2023-02-28T08:33:50;6.15;;;4.20;;
17193;SDS011;8713;48.388;10.928;2023-02-28T08:35:01;8.60;;;4.53;;
17193;SDS011;8713;48.388;10.928;2023-02-28T08:36:11;6.65;;;3.95;;
17193;SDS011;8713;48.388;10.928;2023-02-28T08:37:27;5.13;;;3.63;;
17193;SDS011;8713;48.388;10.928;2023-02-28T08:38:37;7.15;;;3.90;;
17193;SDS011;8713;48.388;10.928;2023-02-28T08:39:46;7.35;;;4.80;;
17193;SDS011;8713;48.388;10.928;2023-02-28T08:41:00;7.43;;;4.25;;
17193;SDS011;8713;48.388;10.928;2023-02-28T08:42:33;6.32;;;4.53;;
17193;SDS011;8713;48.388;10.928;2023-02-28T08:43:51;6.72;;;3.83;;
17193;SDS011;8713;48.388;10.928;2023-02-28T08:45:02;8.77;;;4.60;;
17193;SDS011;8713;48.388;10.928;2023-02-28T08:46:30;9.52;;;5.03;;
17193;SDS011;8713;48.388;10.928;2023-02-28T08:47:41;6.60;;;4.30;;
17193;SDS011;8713;48.388;10.928;2023-02-28T08:48:52;8.25;;;4.82;;
17193;SDS011;8713;48.388;10.928;2023-02-28T08:50:21;7.88;;;4.50;;
17193;SDS011;8713;48.388;10.928;2023-02-28T08:51:50;8.95;;;4.43;;
17193;SDS011;8713;48.388;10.928;2023-02-28T08:53:12;6.60;;;4.28;;
17193;SDS011;8713;48.388;10.928;2023-02-28T08:54:40;7.65;;;4.45;;
17193;SDS011;8713;48.388;10.928;2023-02-28T08:55:56;7.22;;;4.00;;
17193;SDS011;8713;48.388;10.928;2023-02-28T08:57:10;10.02;;;4.20;;
17193;SDS011;8713;48.388;10.928;2023-02-28T08:58:38;8.13;;;4.80;;
17193;SDS011;8713;48.388;10.928;2023-02-28T09:00:07;10.13;;;4.60;;
17193;SDS011;8713;48.388;10.928;2023-02-28T09:01:27;9.30;;;5.22;;
17193;SDS011;8713;48.388;10.928;2023-02-28T09:02:37;8.40;;;5.32;;
17193;SDS011;8713;48.388;10.928;2023-02-28T09:03:47;9.15;;;4.70;;
17193;SDS011;8713;48.388;10.928;2023-02-28T09:05:05;9.18;;;5.30;;
17193;SDS011;8713;48.388;10.928;2023-02-28T09:06:15;8.90;;;5.32;;
17193;SDS011;8713;48.388;10.928;2023-02-28T09:07:26;8.93;;;5.03;;
17193;SDS011;8713;48.388;10.928;2023-02-28T09:08:58;6.45;;;4.47;;
17193;SDS011;8713;48.388;10.928;2023-02-28T09:10:26;9.18;;;5.30;;
17193;SDS011;8713;48.388;10.928;2023-02-28T09:11:58;7.60;;;4.47;;
17193;SDS011;8713;48.388;10.928;2023-02-28T09:13:07;7.35;;;5.10;;
17193;SDS011;8713;48.388;10.928;2023-02-28T09:14:17;8.00;;;4.80;;
17193;SDS011;8713;48.388;10.928;2023-02-28T09:15:26;8.35;;;5.07;;
17193;SDS011;8713;48.388;10.928;2023-02-28T09:16:35;8.27;;;4.65;;
17193;SDS011;8713;48.388;10.928;2023-02-28T09:17:45;8.02;;;5.30;;
17193;SDS011;8713;48.388;10.928;2023-02-28T09:18:54;6.75;;;4.68;;
17193;SDS011;8713;48.388;10.928;2023-02-28T09:20:22;8.52;;;5.10;;
17193;SDS011;8713;48.388;10.928;2023-02-28T09:21:50;7.20;;;4.25;;
17193;SDS011;8713;48.388;10.928;2023-02-28T09:22:59;6.93;;;4.60;;
17193;SDS011;8713;48.388;10.928;2023-02-28T09:24:27;9.80;;;4.75;;
17193;SDS011;8713;48.388;10.928;2023-02-28T09:25:55;6.80;;;5.00;;
17193;SDS011;8713;48.388;10.928;2023-02-28T09:27:24;9.10;;;5.07;;
17193;SDS011;8713;48.388;10.928;2023-02-28T09:28:53;8.38;;;5.10;;
17193;SDS011;8713;48.388;10.928;2023-02-28T09:30:21;7.78;;;4.90;;
17193;SDS011;8713;48.388;10.928;2023-02-28T09:31:50;8.80;;;4.90;;
17193;SDS011;8713;48.388;10.928;2023-02-28T09:32:59;9.07;;;4.30;;
17193;SDS011;8713;48.388;10.928;2023-02-28T09:34:28;8.65;;;5.03;;
17193;SDS011;8713;48.388;10.928;2023-02-28T09:35:59;9.48;;;5.32;;
17193;SDS011;8713;48.388;10.928;2023-02-28T09:37:29;6.97;;;4.25;;
17193;SDS011;8713;48.388;10.928;2023-02-28T09:38:58;7.50;;;4.82;;
17193;SDS011;8713;48.388;10.928;2023-02-28T09:40:27;8.07;;;4.90;;
17193;SDS011;8713;48.388;10.928;2023-02-28T09:41:55;6.85;;;4.30;;
17193;SDS011;8713;48.388;10.928;2023-02-28T09:43:25;7.38;;;5.00;;
17193;SDS011;8713;48.388;10.928;2023-02-28T09:44:57;6.75;;;5.25;;
17193;SDS011;8713;48.388;10.928;2023-02-28T09:47:31;7.75;;;5.22;;
17193;SDS011;8713;48.388;10.928;2023-02-28T09:49:19;8.18;;;4.80;;
17193;SDS011;8713;48.388;10.928;2023-02-28T09:50:52;8.82;;;5.82;;
17193;SDS011;8713;48.388;10.928;2023-02-28T09:52:18;9.77;;;5.32;;
17193;SDS011;8713;48.388;10.928;2023-02-28T09:53:56;7.32;;;4.88;;
17193;SDS011;8713;48.388;10.928;2023-02-28T09:55:28;7.00;;;5.00;;
17193;SDS011;8713;48.388;10.928;2023-02-28T09:57:07;6.82;;;4.45;;
17193;SDS011;8713;48.388;10.928;2023-02-28T10:00:33;11.52;;;5.72;;
17193;SDS011;8713;48.388;10.928;2023-02-28T10:04:14;10.27;;;5.45;;
17193;SDS011;8713;48.388;10.928;2023-02-28T10:05:52;7.88;;;4.97;;
17193;SDS011;8713;48.388;10.928;2023-02-28T10:07:36;8.52;;;5.20;;
17193;SDS011;8713;48.388;10.928;2023-02-28T10:09:11;9.55;;;5.65;;
17193;SDS011;8713;48.388;10.928;2023-02-28T10:10:50;7.35;;;4.65;;
17193;SDS011;8713;48.388;10.928;2023-02-28T10:12:04;12.55;;;4.90;;
17193;SDS011;8713;48.388;10.928;2023-02-28T10:13:38;9.13;;;5.18;;
17193;SDS011;8713;48.388;10.928;2023-02-28T10:15:29;6.55;;;4.80;;
17193;SDS011;8713;48.388;10.928;2023-02-28T10:16:41;9.45;;;4.30;;
17193;SDS011;8713;48.388;10.928;2023-02-28T10:17:57;7.85;;;4.60;;
17193;SDS011;8713;48.388;10.928;2023-02-28T10:19:12;8.93;;;4.78;;
17193;SDS011;8713;48.388;10.928;2023-02-28T10:20:26;8.18;;;5.00;;
17193;SDS011;8713;48.388;10.928;2023-02-28T10:21:41;7.03;;;4.50;;
17193;SDS011;8713;48.388;10.928;2023-02-28T10:24:29;7.05;;;4.95;;
17193;SDS011;8713;48.388;10.928;2023-02-28T10:25:41;8.82;;;4.80;;
17193;SDS011;8713;48.388;10.928;2023-02-28T10:27:14;9.15;;;4.55;;
17193;SDS011;8713;48.388;10.928;2023-02-28T10:28:31;9.05;;;5.20;;
17193;SDS011;8713;48.388;10.928;2023-02-28T10:29:42;8.50;;;5.68;;
17193;SDS011;8713;48.388;10.928;2023-02-28T10:30:59;7.55;;;5.28;;
17193;SDS011;8713;48.388;10.928;2023-02-28T10:32:08;9.57;;;5.82;;
17193;SDS011;8713;48.388;10.928;2023-02-28T10:33:26;7.32;;;5.63;;
17193;SDS011;8713;48.388;10.928;2023-02-28T10:34:41;8.63;;;5.15;;
17193;SDS011;8713;48.388;10.928;2023-02-28T10:35:51;8.95;;;5.25;;
17193;SDS011;8713;48.388;10.928;2023-02-28T10:37:01;9.05;;;5.32;;
17193;SDS011;8713;48.388;10.928;2023-02-28T10:38:26;7.97;;;5.70;;
17193;SDS011;8713;48.388;10.928;2023-02-28T10:39:45;9.05;;;5.80;;
17193;SDS011;8713;48.388;10.928;2023-02-28T10:41:05;8.32;;;5.25;;
17193;SDS011;8713;48.388;10.928;2023-02-28T10:44:17;7.68;;;4.65;;
17193;SDS011;8713;48.388;10.928;2023-02-28T10:45:32;7.95;;;5.78;;
17193;SDS011;8713;48.388;10.928;2023-02-28T10:46:43;7.70;;;4.70;;
17193;SDS011;8713;48.388;10.928;2023-02-28T10:47:55;7.40;;;5.20;;
17193;SDS011;8713;48.388;10.928;2023-02-28T10:49:12;10.30;;;5.40;;
17193;SDS011;8713;48.388;10.928;2023-02-28T10:50:58;7.38;;;4.78;;
17193;SDS011;8713;48.388;10.928;2023-02-28T10:52:08;8.80;;;5.35;;
17193;SDS011;8713;48.388;10.928;2023-02-28T10:53:35;7.00;;;5.22;;
17193;SDS011;8713;48.388;10.928;2023-02-28T10:55:13;7.88;;;5.13;;
17193;SDS011;8713;48.388;10.928;2023-02-28T10:56:33;6.78;;;5.00;;
17193;SDS011;8713;48.388;10.928;2023-02-28T10:57:43;8.77;;;6.13;;
17193;SDS011;8713;48.388;10.928;2023-02-28T11:00:24;7.13;;;4.75;;
17193;SDS011;8713;48.388;10.928;2023-02-28T11:03:05;6.72;;;4.88;;
17193;SDS011;8713;48.388;10.928;2023-02-28T11:04:42;9.68;;;4.68;;
17193;SDS011;8713;48.388;10.928;2023-02-28T11:06:13;9.10;;;5.53;;
17193;SDS011;8713;48.388;10.928;2023-02-28T11:07:25;7.68;;;5.80;;
17193;SDS011;8713;48.388;10.928;2023-02-28T11:09:01;7.18;;;4.75;;
17193;SDS011;8713;48.388;10.928;2023-02-28T11:10:17;7.53;;;5.38;;
17193;SDS011;8713;48.388;10.928;2023-02-28T11:11:30;6.75;;;5.15;;
17193;SDS011;8713;48.388;10.928;2023-02-28T11:13:16;7.63;;;4.93;;
17193;SDS011;8713;48.388;10.928;2023-02-28T11:14:54;8.95;;;4.95;;
17193;SDS011;8713;48.388;10.928;2023-02-28T11:16:07;7.90;;;5.22;;
17193;SDS011;8713;48.388;10.928;2023-02-28T11:17:20;9.73;;;5.97;;
17193;SDS011;8713;48.388;10.928;2023-02-28T11:18:55;8.23;;;5.18;;
17193;SDS011;8713;48.388;10.928;2023-02-28T11:20:05;7.25;;;5.20;;
17193;SDS011;8713;48.388;10.928;2023-02-28T11:21:21;7.15;;;5.05;;
17193;SDS011;8713;48.388;10.928;2023-02-28T11:22:38;6.97;;;4.97;;
17193;SDS011;8713;48.388;10.928;2023-02-28T11:23:49;7.85;;;5.75;;
17193;SDS011;8713;48.388;10.928;2023-02-28T11:25:03;7.78;;;5.35;;
17193;SDS011;8713;48.388;10.928;2023-02-28T11:26:34;10.82;;;4.90;;
17193;SDS011;8713;48.388;10.928;2023-02-28T11:27:50;8.15;;;5.07;;
17193;SDS011;8713;48.388;10.928;2023-02-28T11:29:10;7.28;;;4.43;;
17193;SDS011;8713;48.388;10.928;2023-02-28T11:30:38;6.82;;;4.95;;
17193;SDS011;8713;48.388;10.928;2023-02-28T11:37:30;7.65;;;4.68;;
17193;SDS011;8713;48.388;10.928;2023-02-28T11:38:40;9.52;;;4.63;;
17193;SDS011;8713;48.388;10.928;2023-02-28T11:39:50;9.90;;;4.88;;
17193;SDS011;8713;48.388;10.928;2023-02-28T11:41:18;8.63;;;5.35;;
17193;SDS011;8713;48.388;10.928;2023-02-28T11:44:05;8.30;;;5.35;;
17193;SDS011;8713;48.388;10.928;2023-02-28T12:11:14;6.30;;;4.82;;
17193;SDS011;8713;48.388;10.928;2023-02-28T12:13:09;8.35;;;4.63;;
17193;SDS011;8713;48.388;10.928;2023-02-28T12:16:37;7.20;;;4.60;;
17193;SDS011;8713;48.388;10.928;2023-02-28T12:20:08;8.75;;;5.30;;
17193;SDS011;8713;48.388;10.928;2023-02-28T12:21:41;10.05;;;5.28;;
17193;SDS011;8713;48.388;10.928;2023-02-28T12:24:59;6.85;;;4.57;;
17193;SDS011;8713;48.388;10.928;2023-02-28T12:26:58;9.30;;;5.53;;
17193;SDS011;8713;48.388;10.928;2023-02-28T12:28:28;9.80;;;5.45;;
17193;SDS011;8713;48.388;10.928;2023-02-28T12:31:03;8.93;;;6.20;;
17193;SDS011;8713;48.388;10.928;2023-02-28T12:33:45;10.93;;;5.53;;
17193;SDS011;8713;48.388;10.928;2023-02-28T12:35:04;8.07;;;5.28;;
17193;SDS011;8713;48.388;10.928;2023-02-28T12:36:22;8.50;;;5.45;;
17193;SDS011;8713;48.388;10.928;2023-02-28T12:37:41;7.53;;;4.78;;
17193;SDS011;8713;48.388;10.928;2023-02-28T12:39:01;7.03;;;4.80;;
17193;SDS011;8713;48.388;10.928;2023-02-28T12:40:16;7.65;;;5.20;;
17193;SDS011;8713;48.388;10.928;2023-02-28T12:41:46;8.30;;;5.18;;
17193;SDS011;8713;48.388;10.928;2023-02-28T12:43:04;9.55;;;5.30;;
17193;SDS011;8713;48.388;10.928;2023-02-28T12:44:17;6.80;;;4.80;;
17193;SDS011;8713;48.388;10.928;2023-02-28T12:45:44;9.57;;;5.40;;
17193;SDS011;8713;48.388;10.928;2023-02-28T12:47:15;7.55;;;4.90;;
17193;SDS011;8713;48.388;10.928;2023-02-28T12:48:31;7.50;;;4.80;;
17193;SDS011;8713;48.388;10.928;2023-02-28T12:49:56;6.20;;;4.50;;
17193;SDS011;8713;48.388;10.928;2023-02-28T12:51:11;10.35;;;5.20;;
17193;SDS011;8713;48.388;10.928;2023-02-28T12:52:43;7.07;;;4.68;;
17193;SDS011;8713;48.388;10.928;2023-02-28T12:54:08;8.32;;;4.45;;
17193;SDS011;8713;48.388;10.928;2023-02-28T12:57:47;6.32;;;4.47;;
17193;SDS011;8713;48.388;10.928;2023-02-28T13:04:30;7.75;;;4.93;;
17193;SDS011;8713;48.388;10.928;2023-02-28T13:07:06;9.23;;;5.15;;
17193;SDS011;8713;48.388;10.928;2023-02-28T13:08:16;7.10;;;4.72;;
17193;SDS011;8713;48.388;10.928;2023-02-28T13:09:53;6.25;;;4.57;;
17193;SDS011;8713;48.388;10.928;2023-02-28T13:11:41;9.18;;;5.50;;
17193;SDS011;8713;48.388;10.928;2023-02-28T13:12:54;7.45;;;5.10;;
17193;SDS011;8713;48.388;10.928;2023-02-28T13:14:04;6.13;;;5.00;;
17193;SDS011;8713;48.388;10.928;2023-02-28T13:15:34;8.70;;;5.25;;
17193;SDS011;8713;48.388;10.928;2023-02-28T13:18:46;9.13;;;4.57;;
17193;SDS011;8713;48.388;10.928;2023-02-28T13:20:15;8.85;;;5.32;;
17193;SDS011;8713;48.388;10.928;2023-02-28T13:21:49;9.73;;;5.10;;
17193;SDS011;8713;48.388;10.928;2023-02-28T13:35:37;8.27;;;5.35;;
17193;SDS011;8713;48.388;10.928;2023-02-28T13:38:51;7.32;;;4.90;;
17193;SDS011;8713;48.388;10.928;2023-02-28T13:40:29;9.25;;;4.95;;
17193;SDS011;8713;48.388;10.928;2023-02-28T13:46:05;17.20;;;10.00;;
17193;SDS011;8713;48.388;10.928;2023-02-28T13:49:45;8.50;;;5.22;;
17193;SDS011;8713;48.388;10.928;2023-02-28T13:50:54;9.07;;;6.07;;
17193;SDS011;8713;48.388;10.928;2023-02-28T13:56:27;6.28;;;5.07;;
17193;SDS011;8713;48.388;10.928;2023-02-28T13:57:55;6.63;;;4.80;;
17193;SDS011;8713;48.388;10.928;2023-02-28T13:59:16;8.13;;;5.15;;
17193;SDS011;8713;48.388;10.928;2023-02-28T14:05:05;8.20;;;5.63;;
17193;SDS011;8713;48.388;10.928;2023-02-28T14:06:49;7.03;;;4.78;;
17193;SDS011;8713;48.388;10.928;2023-02-28T14:08:20;7.88;;;4.57;;
17193;SDS011;8713;48.388;10.928;2023-02-28T14:09:35;7.28;;;5.00;;
17193;SDS011;8713;48.388;10.928;2023-02-28T14:10:52;6.85;;;4.55;;
17193;SDS011;8713;48.388;10.928;2023-02-28T14:14:05;6.35;;;4.50;;
17193;SDS011;8713;48.388;10.928;2023-02-28T14:16:51;6.35;;;4.85;;
17193;SDS011;8713;48.388;10.928;2023-02-28T14:18:01;8.93;;;5.13;;
17193;SDS011;8713;48.388;10.928;2023-02-28T14:19:32;6.40;;;4.47;;
17193;SDS011;8713;48.388;10.928;2023-02-28T14:20:43;6.10;;;4.28;;
17193;SDS011;8713;48.388;10.928;2023-02-28T14:25:13;10.20;;;4.78;;
17193;SDS011;8713;48.388;10.928;2023-02-28T14:26:49;7.07;;;4.72;;
17193;SDS011;8713;48.388;10.928;2023-02-28T14:30:43;8.30;;;4.55;;
17193;SDS011;8713;48.388;10.928;2023-02-28T14:32:33;6.45;;;3.85;;
17193;SDS011;8713;48.388;10.928;2023-02-28T14:36:23;8.65;;;4.55;;
17193;SDS011;8713;48.388;10.928;2023-02-28T14:37:45;9.32;;;5.10;;
17193;SDS011;8713;48.388;10.928;2023-02-28T14:39:14;6.15;;;4.68;;
17193;SDS011;8713;48.388;10.928;2023-02-28T14:40:44;8.63;;;4.80;;
17193;SDS011;8713;48.388;10.928;2023-02-28T14:42:31;8.27;;;5.03;;
17193;SDS011;8713;48.388;10.928;2023-02-28T14:44:01;6.88;;;4.97;;
17193;SDS011;8713;48.388;10.928;2023-02-28T14:45:41;6.57;;;4.85;;
17193;SDS011;8713;48.388;10.928;2023-02-28T14:47:13;8.75;;;4.90;;
17193;SDS011;8713;48.388;10.928;2023-02-28T14:48:44;7.82;;;4.88;;
17193;SDS011;8713;48.388;10.928;2023-02-28T14:50:18;7.63;;;5.05;;
17193;SDS011;8713;48.388;10.928;2023-02-28T14:51:50;9.48;;;5.28;;
17193;SDS011;8713;48.388;10.928;2023-02-28T14:53:35;7.95;;;5.13;;
17193;SDS011;8713;48.388;10.928;2023-02-28T14:55:06;7.68;;;4.85;;
17193;SDS011;8713;48.388;10.928;2023-02-28T14:56:48;9.45;;;5.20;;
17193;SDS011;8713;48.388;10.928;2023-02-28T14:58:21;7.85;;;5.00;;
17193;SDS011;8713;48.388;10.928;2023-02-28T15:00:00;8.55;;;4.97;;
17193;SDS011;8713;48.388;10.928;2023-02-28T15:01:33;9.60;;;4.93;;
17193;SDS011;8713;48.388;10.928;2023-02-28T15:03:17;7.63;;;4.65;;
17193;SDS011;8713;48.388;10.928;2023-02-28T15:04:56;8.40;;;4.75;;
17193;SDS011;8713;48.388;10.928;2023-02-28T15:06:29;8.18;;;4.90;;
17193;SDS011;8713;48.388;10.928;2023-02-28T15:08:03;8.82;;;5.00;;
17193;SDS011;8713;48.388;10.928;2023-02-28T15:09:44;7.72;;;5.10;;
17193;SDS011;8713;48.388;10.928;2023-02-28T15:11:14;8.65;;;5.05;;
17193;SDS011;8713;48.388;10.928;2023-02-28T15:14:27;7.35;;;4.55;;
17193;SDS011;8713;48.388;10.928;2023-02-28T15:16:01;7.88;;;4.55;;
17193;SDS011;8713;48.388;10.928;2023-02-28T15:17:32;9.15;;;5.07;;
17193;SDS011;8713;48.388;10.928;2023-02-28T15:19:02;7.43;;;5.25;;
17193;SDS011;8713;48.388;10.928;2023-02-28T15:20:36;10.52;;;6.70;;
17193;SDS011;8713;48.388;10.928;2023-02-28T15:22:11;9.48;;;6.65;;
17193;SDS011;8713;48.388;10.928;2023-02-28T15:24:35;10.88;;;5.85;;
17193;SDS011;8713;48.388;10.928;2023-02-28T15:26:04;9.13;;;5.40;;
17193;SDS011;8713;48.388;10.928;2023-02-28T15:27:34;9.18;;;5.90;;
17193;SDS011;8713;48.388;10.928;2023-02-28T15:29:17;9.45;;;6.00;;
17193;SDS011;8713;48.388;10.928;2023-02-28T15:30:51;7.53;;;5.32;;
17193;SDS011;8713;48.388;10.928;2023-02-28T15:32:33;8.75;;;5.20;;
17193;SDS011;8713;48.388;10.928;2023-02-28T15:34:27;9.85;;;5.97;;
17193;SDS011;8713;48.388;10.928;2023-02-28T15:36:06;8.60;;;5.50;;
17193;SDS011;8713;48.388;10.928;2023-02-28T15:37:47;7.50;;;5.15;;
17193;SDS011;8713;48.388;10.928;2023-02-28T15:39:30;11.75;;;6.15;;
17193;SDS011;8713;48.388;10.928;2023-02-28T15:41:00;6.47;;;5.13;;
17193;SDS011;8713;48.388;10.928;2023-02-28T15:42:30;6.72;;;5.15;;
17193;SDS011;8713;48.388;10.928;2023-02-28T15:45:59;9.45;;;5.05;;
17193;SDS011;8713;48.388;10.928;2023-02-28T15:47:38;7.93;;;4.60;;
17193;SDS011;8713;48.388;10.928;2023-02-28T15:49:17;7.20;;;5.13;;
17193;SDS011;8713;48.388;10.928;2023-02-28T15:50:50;6.13;;;4.65;;
17193;SDS011;8713;48.388;10.928;2023-02-28T15:52:37;7.68;;;5.13;;
17193;SDS011;8713;48.388;10.928;2023-02-28T15:54:14;6.80;;;4.95;;
17193;SDS011;8713;48.388;10.928;2023-02-28T15:55:52;8.02;;;5.10;;
17193;SDS011;8713;48.388;10.928;2023-02-28T15:57:25;8.27;;;4.78;;
17193;SDS011;8713;48.388;10.928;2023-02-28T15:58:57;7.28;;;4.78;;
17193;SDS011;8713;48.388;10.928;2023-02-28T16:00:29;8.60;;;5.28;;
17193;SDS011;8713;48.388;10.928;2023-02-28T16:02:21;8.48;;;5.38;;
17193;SDS011;8713;48.388;10.928;2023-02-28T16:04:15;10.25;;;6.43;;
17193;SDS011;8713;48.388;10.928;2023-02-28T16:05:46;11.63;;;6.60;;
17193;SDS011;8713;48.388;10.928;2023-02-28T16:07:56;10.00;;;5.22;;
17193;SDS011;8713;48.388;10.928;2023-02-28T16:09:47;9.68;;;5.32;;
17193;SDS011;8713;48.388;10.928;2023-02-28T16:11:17;8.27;;;5.55;;
17193;SDS011;8713;48.388;10.928;2023-02-28T16:12:49;7.57;;;5.13;;
17193;SDS011;8713;48.388;10.928;2023-02-28T16:14:20;7.88;;;5.20;;
17193;SDS011;8713;48.388;10.928;2023-02-28T16:15:56;9.77;;;5.70;;
17193;SDS011;8713;48.388;10.928;2023-02-28T16:17:29;9.95;;;5.45;;
17193;SDS011;8713;48.388;10.928;2023-02-28T16:19:05;7.97;;;5.00;;
17193;SDS011;8713;48.388;10.928;2023-02-28T16:20:36;8.85;;;5.50;;
17193;SDS011;8713;48.388;10.928;2023-02-28T16:22:07;9.38;;;5.15;;
17193;SDS011;8713;48.388;10.928;2023-02-28T16:23:38;7.90;;;5.32;;
17193;SDS011;8713;48.388;10.928;2023-02-28T16:25:15;7.82;;;5.32;;
17193;SDS011;8713;48.388;10.928;2023-02-28T16:26:58;9.50;;;5.15;;
17193;SDS011;8713;48.388;10.928;2023-02-28T16:28:30;8.23;;;4.90;;
17193;SDS011;8713;48.388;10.928;2023-02-28T16:30:03;7.57;;;5.13;;
17193;SDS011;8713;48.388;10.928;2023-02-28T16:31:35;9.68;;;4.82;;
17193;SDS011;8713;48.388;10.928;2023-02-28T16:33:07;11.23;;;5.55;;
17193;SDS011;8713;48.388;10.928;2023-02-28T16:34:36;9.30;;;6.45;;
17193;SDS011;8713;48.388;10.928;2023-02-28T16:36:06;12.20;;;6.57;;
17193;SDS011;8713;48.388;10.928;2023-02-28T16:37:35;9.63;;;6.50;;
17193;SDS011;8713;48.388;10.928;2023-02-28T16:39:06;10.05;;;6.15;;
17193;SDS011;8713;48.388;10.928;2023-02-28T16:40:35;7.70;;;5.38;;
17193;SDS011;8713;48.388;10.928;2023-02-28T16:42:05;7.88;;;5.30;;
17193;SDS011;8713;48.388;10.928;2023-02-28T16:43:35;7.38;;;5.00;;
17193;SDS011;8713;48.388;10.928;2023-02-28T16:45:05;7.57;;;5.40;;
17193;SDS011;8713;48.388;10.928;2023-02-28T16:46:35;9.13;;;5.55;;
17193;SDS011;8713;48.388;10.928;2023-02-28T16:48:04;7.90;;;4.90;;
17193;SDS011;8713;48.388;10.928;2023-02-28T16:49:34;9.10;;;5.47;;
17193;SDS011;8713;48.388;10.928;2023-02-28T16:51:03;8.68;;;5.70;;
17193;SDS011;8713;48.388;10.928;2023-02-28T16:52:33;9.32;;;5.88;;
17193;SDS011;8713;48.388;10.928;2023-02-28T16:54:03;9.73;;;5.72;;
17193;SDS011;8713;48.388;10.928;2023-02-28T16:55:33;8.35;;;5.28;;
17193;SDS011;8713;48.388;10.928;2023-02-28T16:57:04;13.20;;;5.97;;
17193;SDS011;8713;48.388;10.928;2023-02-28T16:58:34;9.65;;;5.97;;
17193;SDS011;8713;48.388;10.928;2023-02-28T17:00:05;9.73;;;5.93;;
17193;SDS011;8713;48.388;10.928;2023-02-28T17:01:37;8.55;;;5.50;;
17193;SDS011;8713;48.388;10.928;2023-02-28T17:03:16;7.78;;;4.60;;
17193;SDS011;8713;48.388;10.928;2023-02-28T17:04:50;7.55;;;4.93;;
17193;SDS011;8713;48.388;10.928;2023-02-28T17:06:20;10.77;;;5.20;;
17193;SDS011;8713;48.388;10.928;2023-02-28T17:07:56;9.85;;;6.60;;
17193;SDS011;8713;48.388;10.928;2023-02-28T17:09:26;10.15;;;6.85;;
17193;SDS011;8713;48.388;10.928;2023-02-28T17:10:56;12.32;;;7.13;;
17193;SDS011;8713;48.388;10.928;2023-02-28T17:12:25;11.65;;;6.88;;
17193;SDS011;8713;48.388;10.928;2023-02-28T17:13:55;9.60;;;6.50;;
17193;SDS011;8713;48.388;10.928;2023-02-28T17:15:24;8.95;;;6.78;;
17193;SDS011;8713;48.388;10.928;2023-02-28T17:16:54;11.68;;;6.65;;
17193;SDS011;8713;48.388;10.928;2023-02-28T17:18:23;11.13;;;7.07;;
17193;SDS011;8713;48.388;10.928;2023-02-28T17:19:52;10.25;;;6.90;;